Time;durP1;ratioP1;P1;durP2;ratioP2;P2;SDS_P1;SDS_P2;PMS_P1;PMS_P2;Temp;Humidity;BMP_temperature;BMP_pressure;BME280_temperature;BME280_humidity;BME280_pressure;Samples;Min_cycle;Max_cycle;Signal;HPM_P1;HPM_P2
2022/10/11 00:00:19;;;;;;;7.97;2.50;;;17.20;99.90;;;;;;5096413;28;20070;-76
2022/10/11 00:02:45;;;;;;;8.13;2.08;;;17.20;99.90;;;;;;5097206;28;20020;-75
2022/10/11 00:05:11;;;;;;;7.68;2.55;;;17.20;99.90;;;;;;5096772;28;20028;-76
2022/10/11 00:07:37;;;;;;;7.95;2.30;;;17.20;99.90;;;;;;5097208;28;20421;-76
2022/10/11 00:10:04;;;;;;;8.65;2.42;;;17.10;99.90;;;;;;5097013;28;20019;-75
2022/10/11 00:12:30;;;;;;;5.68;1.83;;;17.20;99.90;;;;;;5096389;28;20024;-75
2022/10/11 00:14:56;;;;;;;7.35;2.20;;;17.10;99.90;;;;;;5096405;28;20030;-76
2022/10/11 00:17:22;;;;;;;9.30;2.72;;;17.10;99.90;;;;;;5096239;28;20461;-76
2022/10/11 00:19:47;;;;;;;9.10;2.22;;;17.10;99.90;;;;;;5096994;28;20020;-76
2022/10/11 00:22:13;;;;;;;7.63;2.58;;;17.10;99.90;;;;;;5114345;28;20511;-75
2022/10/11 00:24:38;;;;;;;8.25;2.78;;;17.10;99.90;;;;;;5115189;28;20100;-76
2022/10/11 00:27:04;;;;;;;5.55;2.50;;;17.10;99.90;;;;;;5096765;28;20031;-75
2022/10/11 00:29:30;;;;;;;6.45;2.22;;;17.10;99.90;;;;;;5095972;28;20102;-76
2022/10/11 00:31:55;;;;;;;11.45;2.83;;;17.00;99.90;;;;;;5096729;28;20388;-75
2022/10/11 00:34:21;;;;;;;10.07;2.33;;;17.00;99.90;;;;;;5113747;28;20030;-75
2022/10/11 00:36:47;;;;;;;8.88;2.17;;;17.00;99.90;;;;;;5096276;28;20023;-75
2022/10/11 00:39:13;;;;;;;5.03;2.40;;;17.00;99.90;;;;;;5095946;28;20376;-75
2022/10/11 00:41:39;;;;;;;9.25;2.85;;;16.90;99.90;;;;;;5096389;28;20023;-75
2022/10/11 00:44:17;;;;;;;8.82;2.65;;;16.90;99.90;;;;;;5096320;28;20024;-75
2022/10/11 00:47:02;;;;;;;7.88;2.42;;;16.90;99.90;;;;;;5096542;28;20027;-75
2022/10/11 00:49:39;;;;;;;7.40;2.30;;;16.90;99.90;;;;;;5095318;28;20027;-75
2022/10/11 00:52:07;;;;;;;6.05;2.67;;;17.00;99.90;;;;;;5096356;28;20059;-76
2022/10/11 00:54:36;;;;;;;10.45;2.83;;;16.90;99.90;;;;;;5113668;28;20251;-75
2022/10/11 00:57:06;;;;;;;7.28;2.88;;;16.90;99.90;;;;;;5114191;28;20479;-76
2022/10/11 00:59:38;;;;;;;7.97;3.00;;;16.90;99.90;;;;;;5095272;28;20031;-76
2022/10/11 01:02:05;;;;;;;28.35;15.52;;;16.90;99.90;;;;;;5096058;28;20551;-76
2022/10/11 01:04:31;;;;;;;10.70;5.70;;;16.80;99.90;;;;;;5095182;28;20765;-75
2022/10/11 01:06:57;;;;;;;10.93;3.20;;;16.80;99.90;;;;;;5095858;28;20062;-75
2022/10/11 01:09:25;;;;;;;8.90;3.38;;;16.80;99.90;;;;;;5095164;28;20486;-76
2022/10/11 01:11:52;;;;;;;10.63;3.25;;;16.80;99.90;;;;;;5096046;28;20028;-76
2022/10/11 01:14:38;;;;;;;10.23;2.97;;;16.80;99.90;;;;;;5113128;28;20380;-76
2022/10/11 01:17:27;;;;;;;6.65;3.10;;;16.80;99.90;;;;;;5095839;28;20020;-76
2022/10/11 01:20:26;;;;;;;7.90;2.60;;;16.80;99.90;;;;;;5095732;28;20480;-76
2022/10/11 01:23:30;;;;;;;9.07;2.70;;;16.70;99.90;;;;;;5096072;28;20476;-76
2022/10/11 01:26:12;;;;;;;12.52;2.95;;;16.70;99.90;;;;;;5094407;28;20500;-76
2022/10/11 01:29:07;;;;;;;7.68;2.83;;;16.70;99.90;;;;;;5094916;28;20028;-76
2022/10/11 01:31:57;;;;;;;11.70;2.47;;;16.70;99.90;;;;;;5094990;28;20051;-76
2022/10/11 01:34:33;;;;;;;8.40;3.28;;;16.60;99.90;;;;;;5094780;28;20023;-76
2022/10/11 01:37:11;;;;;;;10.35;2.83;;;16.60;99.90;;;;;;5095621;28;20495;-76
2022/10/11 01:39:47;;;;;;;11.50;3.30;;;16.50;99.90;;;;;;5112986;28;20124;-76
2022/10/11 01:42:14;;;;;;;11.05;2.55;;;16.40;99.90;;;;;;5095534;28;20111;-76
2022/10/11 01:44:43;;;;;;;7.88;2.80;;;16.40;99.90;;;;;;5094967;28;20073;-77
2022/10/11 01:47:09;;;;;;;7.85;2.60;;;16.40;99.90;;;;;;5095387;28;20027;-77
2022/10/11 01:49:35;;;;;;;10.15;2.58;;;16.30;99.90;;;;;;5094482;28;20076;-77
2022/10/11 01:52:04;;;;;;;6.47;2.35;;;16.30;99.90;;;;;;5113513;28;20364;-76
2022/10/11 01:54:46;;;;;;;6.75;2.40;;;16.30;99.90;;;;;;5094302;28;20483;-76
2022/10/11 01:57:14;;;;;;;;;;;16.20;99.90;;;;;;5095387;28;20122;-76
2022/10/11 01:59:40;;;;;;;8.60;2.80;;;16.20;99.90;;;;;;5094542;28;19907;-75
2022/10/11 02:02:24;;;;;;;9.93;2.65;;;16.10;99.90;;;;;;5094966;28;20076;-75
2022/10/11 02:05:09;;;;;;;7.22;2.47;;;16.20;99.90;;;;;;5095178;28;20019;-76
2022/10/11 02:08:12;;;;;;;9.63;2.95;;;16.20;99.90;;;;;;5112312;28;20032;-76
2022/10/11 02:11:01;;;;;;;6.60;2.63;;;16.20;99.90;;;;;;5093895;28;20023;-76
2022/10/11 02:13:33;;;;;;;11.10;2.65;;;16.10;99.90;;;;;;5093952;28;20464;-76
2022/10/11 02:16:02;;;;;;;9.00;2.75;;;16.20;99.90;;;;;;5094788;28;20065;-76
2022/10/11 02:18:33;;;;;;;7.55;2.55;;;16.20;99.90;;;;;;5093932;28;20386;-76
2022/10/11 02:21:02;;;;;;;8.40;3.10;;;16.20;99.90;;;;;;5094910;28;20028;-75
2022/10/11 02:23:39;;;;;;;6.95;2.97;;;16.20;99.90;;;;;;5094054;28;20491;-75
2022/10/11 02:26:07;;;;;;;7.40;3.08;;;16.20;99.90;;;;;;5094453;28;20055;-75
2022/10/11 02:28:36;;;;;;;9.38;3.78;;;16.10;99.90;;;;;;5093575;28;20028;-75
2022/10/11 02:31:05;;;;;;;13.70;3.83;;;16.10;99.90;;;;;;5092892;28;20053;-74
2022/10/11 02:33:40;;;;;;;9.63;3.78;;;16.20;99.90;;;;;;5093826;28;20032;-76
2022/10/11 02:36:23;;;;;;;9.70;3.72;;;16.20;99.90;;;;;;5094619;28;20027;-75
2022/10/11 02:38:54;;;;;;;13.75;3.90;;;16.20;99.90;;;;;;5094468;28;20039;-75
2022/10/11 02:41:31;;;;;;;11.20;3.90;;;16.10;99.90;;;;;;5094135;28;20027;-74
2022/10/11 02:44:05;;;;;;;10.52;3.30;;;16.10;99.90;;;;;;5094614;28;20020;-76
2022/10/11 02:46:31;;;;;;;12.82;4.18;;;16.10;99.90;;;;;;5093631;28;20035;-75
2022/10/11 02:49:00;;;;;;;10.90;3.47;;;16.00;99.90;;;;;;5112629;28;20031;-76
2022/10/11 02:51:29;;;;;;;9.45;3.78;;;16.00;99.90;;;;;;5111565;28;20020;-75
2022/10/11 02:53:55;;;;;;;13.77;3.90;;;16.00;99.90;;;;;;5112386;28;20024;-74
2022/10/11 02:56:20;;;;;;;6.95;3.63;;;16.00;99.90;;;;;;5112067;28;20035;-77
2022/10/11 02:58:46;;;;;;;14.77;5.00;;;16.00;99.90;;;;;;5094188;28;20543;-74
2022/10/11 03:01:12;;;;;;;13.27;5.22;;;15.90;99.90;;;;;;5094234;28;20487;-74
2022/10/11 03:03:37;;;;;;;12.13;4.78;;;16.00;99.90;;;;;;5093624;28;20081;-75
2022/10/11 03:06:03;;;;;;;13.07;4.72;;;15.90;99.90;;;;;;5094324;28;20032;-75
2022/10/11 03:08:30;;;;;;;10.40;4.88;;;16.00;99.90;;;;;;5093583;28;20399;-76
2022/10/11 03:10:55;;;;;;;12.13;5.05;;;16.00;99.90;;;;;;5112668;28;20031;-75
2022/10/11 03:13:21;;;;;;;10.77;4.80;;;16.00;99.90;;;;;;5093714;28;20375;-75
2022/10/11 03:15:48;;;;;;;13.80;5.68;;;16.00;99.90;;;;;;5111816;28;20024;-75
2022/10/11 03:18:14;;;;;;;12.52;4.80;;;16.00;99.90;;;;;;5094139;28;20035;-75
2022/10/11 03:20:39;;;;;;;11.77;4.50;;;15.90;99.90;;;;;;5093240;28;20270;-75
2022/10/11 03:23:05;;;;;;;8.95;5.22;;;16.00;99.90;;;;;;5093402;28;20030;-75
2022/10/11 03:25:31;;;;;;;10.52;4.70;;;15.90;99.90;;;;;;5089425;28;20044;-75
2022/10/11 03:27:56;;;;;;;14.30;5.75;;;15.90;99.90;;;;;;5090517;28;20028;-75
2022/10/11 03:30:22;;;;;;;15.00;5.97;;;15.80;99.90;;;;;;5090092;28;20021;-75
2022/10/11 03:32:47;;;;;;;14.02;6.57;;;15.80;99.90;;;;;;5090234;28;20024;-75
2022/10/11 03:35:13;;;;;;;17.02;7.18;;;15.70;99.90;;;;;;5090458;28;20317;-75
2022/10/11 03:37:39;;;;;;;17.23;7.75;;;15.70;99.90;;;;;;5089878;28;20032;-75
2022/10/11 03:40:07;;;;;;;19.30;7.65;;;15.70;99.90;;;;;;5091755;28;20066;-75
2022/10/11 03:42:32;;;;;;;17.95;7.90;;;15.70;99.90;;;;;;5089729;28;20028;-75
2022/10/11 03:45:00;;;;;;;17.55;7.90;;;15.70;99.90;;;;;;5091758;28;20024;-75
2022/10/11 03:47:26;;;;;;;14.75;7.78;;;15.70;99.90;;;;;;5090992;28;20157;-75
2022/10/11 03:49:51;;;;;;;20.17;9.63;;;15.60;99.90;;;;;;5092098;28;20107;-75
2022/10/11 03:52:17;;;;;;;17.85;8.98;;;15.50;99.90;;;;;;5093954;28;20020;-75
2022/10/11 03:54:43;;;;;;;19.88;9.82;;;15.50;99.90;;;;;;5094660;28;20028;-75
2022/10/11 03:57:08;;;;;;;17.52;9.60;;;15.50;99.90;;;;;;5093848;28;20426;-75
2022/10/11 03:59:34;;;;;;;22.42;9.23;;;15.50;99.90;;;;;;5092906;28;20105;-75
2022/10/11 04:01:59;;;;;;;16.17;10.07;;;15.40;99.90;;;;;;5093749;28;20028;-75
2022/10/11 04:04:25;;;;;;;18.23;9.70;;;15.40;99.90;;;;;;5094608;28;20030;-75
2022/10/11 04:06:51;;;;;;;23.60;9.68;;;15.30;99.90;;;;;;5094998;28;20032;-75
2022/10/11 04:09:16;;;;;;;19.48;9.30;;;15.30;99.90;;;;;;5093652;28;20028;-75
2022/10/11 04:11:42;;;;;;;18.23;9.13;;;15.30;99.90;;;;;;5092979;28;20081;-76
2022/10/11 04:14:07;;;;;;;21.33;9.93;;;15.30;99.90;;;;;;5093546;28;20545;-76
2022/10/11 04:16:34;;;;;;;15.80;8.98;;;15.20;99.90;;;;;;5092665;28;20412;-76
2022/10/11 04:18:59;;;;;;;18.90;9.70;;;15.30;99.90;;;;;;5094827;28;20028;-76
2022/10/11 04:21:25;;;;;;;20.27;9.63;;;15.30;99.90;;;;;;5094207;28;20050;-76
2022/10/11 04:23:51;;;;;;;20.92;10.85;;;15.20;99.90;;;;;;5093981;28;20078;-75
2022/10/11 04:26:16;;;;;;;18.90;9.82;;;15.30;99.90;;;;;;5093194;28;20052;-76
2022/10/11 04:28:42;;;;;;;18.63;10.25;;;15.20;99.90;;;;;;5093469;28;20028;-76
2022/10/11 04:31:07;;;;;;;25.13;10.65;;;15.20;99.90;;;;;;5093260;28;20032;-75
2022/10/11 04:33:33;;;;;;;20.65;10.18;;;15.20;99.90;;;;;;5092004;28;20020;-75
2022/10/11 04:35:58;;;;;;;26.25;10.93;;;15.10;99.90;;;;;;5093050;28;20031;-75
2022/10/11 04:38:24;;;;;;;20.25;10.52;;;15.10;99.90;;;;;;5092966;28;20036;-75
2022/10/11 04:40:50;;;;;;;18.35;11.43;;;15.10;99.90;;;;;;5092774;28;20102;-75
2022/10/11 04:43:16;;;;;;;22.65;10.52;;;15.00;99.90;;;;;;5094391;28;20025;-75
2022/10/11 04:45:42;;;;;;;21.00;11.65;;;15.00;99.90;;;;;;5092392;28;20032;-75
2022/10/11 04:48:08;;;;;;;21.15;11.48;;;15.00;99.90;;;;;;5092958;28;20082;-75
2022/10/11 04:50:34;;;;;;;18.95;11.15;;;15.00;99.90;;;;;;5092036;28;20032;-75
2022/10/11 04:53:00;;;;;;;23.25;10.85;;;14.90;99.90;;;;;;5092867;28;20028;-76
2022/10/11 04:55:26;;;;;;;23.50;10.98;;;14.90;99.90;;;;;;5092353;28;20028;-76
2022/10/11 04:57:51;;;;;;;21.92;10.57;;;14.80;99.90;;;;;;5092308;28;20447;-75
2022/10/11 05:00:17;;;;;;;22.52;11.68;;;14.90;99.90;;;;;;5092496;28;20077;-75
2022/10/11 05:02:43;;;;;;;20.23;10.60;;;14.80;99.90;;;;;;5091808;28;20380;-75
2022/10/11 05:05:09;;;;;;;20.50;9.85;;;14.80;99.90;;;;;;5092544;28;20020;-75
2022/10/11 05:07:35;;;;;;;23.20;10.18;;;14.80;99.90;;;;;;5091899;28;20059;-74
2022/10/11 05:10:00;;;;;;;23.13;9.50;;;14.80;99.90;;;;;;5094195;28;20059;-75
2022/10/11 05:12:26;;;;;;;17.38;9.25;;;14.80;99.90;;;;;;5092316;28;20072;-76
2022/10/11 05:14:52;;;;;;;17.20;9.18;;;14.80;99.90;;;;;;5092024;28;20472;-76
2022/10/11 05:17:17;;;;;;;20.83;8.68;;;14.70;99.90;;;;;;5093553;28;20089;-76
2022/10/11 05:19:43;;;;;;;16.40;8.98;;;14.80;99.90;;;;;;5091595;28;20477;-76
2022/10/11 05:22:09;;;;;;;15.15;8.85;;;14.70;99.90;;;;;;5092316;28;20096;-76
2022/10/11 05:24:34;;;;;;;16.17;8.52;;;14.70;99.90;;;;;;5091219;28;20048;-76
2022/10/11 05:27:00;;;;;;;20.05;8.05;;;14.70;99.90;;;;;;5092574;28;20366;-76
2022/10/11 05:29:26;;;;;;;18.83;8.45;;;14.70;99.90;;;;;;5092253;28;20024;-76
2022/10/11 05:31:51;;;;;;;15.98;7.72;;;14.70;99.90;;;;;;5091585;28;20073;-76
2022/10/11 05:34:17;;;;;;;14.40;7.47;;;14.70;99.90;;;;;;5092205;28;20031;-75
2022/10/11 05:36:42;;;;;;;13.57;7.45;;;14.70;99.90;;;;;;5091219;28;20114;-75
2022/10/11 05:39:08;;;;;;;13.68;7.47;;;14.70;99.90;;;;;;5092029;28;20031;-75
2022/10/11 05:41:33;;;;;;;15.18;7.40;;;14.70;99.90;;;;;;5092386;28;20047;-75
2022/10/11 05:43:59;;;;;;;12.50;7.13;;;14.60;99.90;;;;;;5092920;28;20067;-75
2022/10/11 05:46:24;;;;;;;15.20;7.03;;;14.60;99.90;;;;;;5093064;28;20031;-75
2022/10/11 05:48:50;;;;;;;11.73;6.28;;;14.60;99.90;;;;;;5091010;28;20027;-75
2022/10/11 05:51:16;;;;;;;12.68;6.20;;;14.70;99.90;;;;;;5091712;28;20074;-75
2022/10/11 05:53:41;;;;;;;9.45;5.72;;;14.70;99.90;;;;;;5090844;28;20020;-75
2022/10/11 05:56:21;;;;;;;10.43;5.80;;;14.60;99.90;;;;;;5092886;28;20504;-76
2022/10/11 05:58:47;;;;;;;9.95;5.18;;;14.70;99.90;;;;;;5090933;28;20123;-76
2022/10/11 06:01:24;;;;;;;12.50;5.03;;;14.60;99.90;;;;;;5091624;28;20067;-76
2022/10/11 06:03:50;;;;;;;11.20;4.65;;;14.50;99.90;;;;;;5092262;28;20208;-75
2022/10/11 06:06:16;;;;;;;7.72;4.35;;;14.50;99.90;;;;;;5092807;28;20035;-75
2022/10/11 06:08:42;;;;;;;9.13;3.92;;;14.50;99.90;;;;;;5090721;28;20417;-75
2022/10/11 06:11:16;;;;;;;9.07;3.65;;;14.50;99.90;;;;;;5091552;28;20062;-75
2022/10/11 06:13:43;;;;;;;9.02;3.78;;;14.50;99.90;;;;;;5091825;28;20024;-75
2022/10/11 06:16:10;;;;;;;9.63;3.30;;;14.50;99.90;;;;;;5091060;28;20055;-74
2022/10/11 06:18:35;;;;;;;6.30;2.70;;;14.40;99.90;;;;;;5090538;28;20032;-75
2022/10/11 06:21:01;;;;;;;5.68;2.45;;;14.40;99.90;;;;;;5090813;28;20057;-75
2022/10/11 06:23:27;;;;;;;4.57;2.33;;;14.40;99.90;;;;;;5091168;28;20058;-75
2022/10/11 06:26:04;;;;;;;4.82;2.13;;;14.40;99.90;;;;;;5089834;28;20095;-75
2022/10/11 06:28:30;;;;;;;8.48;1.90;;;14.30;99.90;;;;;;5090992;28;20119;-75
2022/10/11 06:30:55;;;;;;;4.35;1.83;;;14.30;99.90;;;;;;5090403;28;20119;-75
2022/10/11 06:33:22;;;;;;;6.20;1.90;;;14.30;99.90;;;;;;5091187;28;20362;-75
2022/10/11 06:35:47;;;;;;;4.70;1.80;;;14.30;99.90;;;;;;5090365;28;20031;-75
2022/10/11 06:38:13;;;;;;;6.97;1.88;;;14.30;99.90;;;;;;5092393;28;20028;-75
2022/10/11 06:40:39;;;;;;;4.53;1.70;;;14.40;99.90;;;;;;5090244;28;20118;-75
2022/10/11 06:43:04;;;;;;;6.10;1.60;;;14.30;99.90;;;;;;5092289;28;20385;-75
2022/10/11 06:45:30;;;;;;;7.45;1.75;;;14.30;99.90;;;;;;5091042;28;20028;-75
2022/10/11 06:47:56;;;;;;;5.45;1.27;;;14.40;99.90;;;;;;5090636;28;20024;-76
2022/10/11 06:50:22;;;;;;;5.72;1.45;;;14.40;99.90;;;;;;5090779;28;20039;-76
2022/10/11 06:52:48;;;;;;;9.00;2.28;;;14.40;99.90;;;;;;5089910;28;20460;-75
2022/10/11 06:55:13;;;;;;;7.20;1.55;;;14.40;99.90;;;;;;5091551;28;20028;-75
2022/10/11 06:57:39;;;;;;;7.47;1.33;;;14.30;99.90;;;;;;5090081;28;20123;-75
2022/10/11 07:00:05;;;;;;;2.78;1.30;;;14.20;99.90;;;;;;5090547;28;20028;-75
2022/10/11 07:02:31;;;;;;;7.07;1.30;;;14.20;99.90;;;;;;5090509;28;20024;-75
2022/10/11 07:04:57;;;;;;;5.72;1.15;;;14.20;99.90;;;;;;5089736;28;20024;-75
2022/10/11 07:07:23;;;;;;;7.43;1.40;;;14.20;99.90;;;;;;5090319;28;20028;-75
2022/10/11 07:09:48;;;;;;;9.70;1.30;;;14.20;99.90;;;;;;5089630;28;20111;-75
2022/10/11 07:12:15;;;;;;;9.18;1.65;;;14.20;99.90;;;;;;5091625;28;20024;-76
2022/10/11 07:14:41;;;;;;;6.97;1.05;;;14.20;99.90;;;;;;5090066;28;20047;-76
2022/10/11 07:17:06;;;;;;;9.88;1.20;;;14.20;99.90;;;;;;5090337;28;20473;-76
2022/10/11 07:19:32;;;;;;;3.60;1.13;;;14.20;99.90;;;;;;5091826;28;20024;-76
2022/10/11 07:21:57;;;;;;;7.13;1.13;;;14.20;99.90;;;;;;5089426;28;20024;-76
2022/10/11 07:24:23;;;;;;;8.48;1.42;;;14.20;99.90;;;;;;5093823;28;20066;-76
2022/10/11 07:26:49;;;;;;;5.78;1.30;;;14.20;99.90;;;;;;5095828;28;20400;-76
2022/10/11 07:29:14;;;;;;;6.07;1.40;;;14.30;99.90;;;;;;5096818;28;20392;-75
2022/10/11 07:31:41;;;;;;;9.25;1.63;;;14.30;99.90;;;;;;5115052;28;20027;-76
2022/10/11 07:34:08;;;;;;;8.90;1.20;;;14.30;99.90;;;;;;5097535;28;20464;-77
2022/10/11 07:36:33;;;;;;;5.75;1.80;;;14.30;99.90;;;;;;5115580;28;20116;-76
2022/10/11 07:38:59;;;;;;;12.27;1.50;;;14.30;99.90;;;;;;5096514;28;20119;-76
2022/10/11 07:41:24;;;;;;;6.70;1.25;;;14.30;99.90;;;;;;5097130;28;20068;-77
2022/10/11 07:43:50;;;;;;;6.70;1.25;;;14.30;99.90;;;;;;5096236;28;20493;-76
2022/10/11 07:46:17;;;;;;;9.95;1.38;;;14.20;99.90;;;;;;5097079;28;20023;-75
2022/10/11 07:48:43;;;;;;;7.03;1.70;;;14.20;99.90;;;;;;5114879;28;20050;-75
2022/10/11 07:51:15;;;;;;;7.72;1.40;;;14.20;99.90;;;;;;5087391;28;20701;-77
2022/10/11 07:53:41;;;;;;;;;;;14.20;99.90;;;;;;5085579;28;20024;-77
2022/10/11 07:56:11;;;;;;;9.38;1.33;;;14.20;99.90;;;;;;5096883;28;19950;-76
2022/10/11 07:58:37;;;;;;;7.10;1.40;;;14.20;99.90;;;;;;5081585;28;20032;-75
2022/10/11 08:01:02;;;;;;;6.00;1.40;;;14.20;99.90;;;;;;5097067;28;20024;-75
2022/10/11 08:03:28;;;;;;;9.27;1.40;;;14.30;99.90;;;;;;5115412;28;20491;-76
2022/10/11 08:06:01;;;;;;;7.80;1.65;;;14.20;99.90;;;;;;5096158;28;20031;-75
2022/10/11 08:08:27;;;;;;;8.95;1.80;;;14.20;99.90;;;;;;5093244;28;20016;-75
2022/10/11 08:10:53;;;;;;;7.47;1.35;;;14.30;99.90;;;;;;5102700;28;20457;-77
2022/10/11 08:13:19;;;;;;;9.68;1.45;;;14.30;99.90;;;;;;5114705;28;20034;-76
2022/10/11 08:15:45;;;;;;;11.80;1.58;;;14.20;99.90;;;;;;5095498;28;20047;-77
2022/10/11 08:18:10;;;;;;;7.82;1.77;;;14.20;99.90;;;;;;5096434;28;20081;-76
2022/10/11 08:20:38;;;;;;;8.82;1.20;;;14.20;99.90;;;;;;5095917;28;20114;-76
2022/10/11 08:23:04;;;;;;;12.05;1.50;;;14.20;99.90;;;;;;5096100;28;20042;-76
2022/10/11 08:25:29;;;;;;;8.85;1.50;;;14.10;99.90;;;;;;5095815;28;20043;-76
2022/10/11 08:27:55;;;;;;;3.70;1.20;;;14.10;99.90;;;;;;5095448;28;20330;-77
2022/10/11 08:30:20;;;;;;;8.30;1.38;;;14.10;99.90;;;;;;5093133;28;20024;-76
2022/10/11 08:32:46;;;;;;;10.52;1.55;;;14.10;99.90;;;;;;5083780;28;20035;-76
2022/10/11 08:35:11;;;;;;;6.90;1.35;;;14.10;99.90;;;;;;5102559;28;20036;-77
2022/10/11 08:37:37;;;;;;;9.27;1.65;;;14.20;99.90;;;;;;5085734;28;20032;-76
2022/10/11 08:40:04;;;;;;;8.68;2.03;;;14.20;99.90;;;;;;5086436;28;20055;-72
2022/10/11 08:42:39;;;;;;;6.63;1.15;;;14.30;99.90;;;;;;5084569;28;20027;-76
2022/10/11 08:45:23;;;;;;;4.97;1.17;;;14.20;99.90;;;;;;5086121;28;20024;-77
2022/10/11 08:47:49;;;;;;;6.18;1.98;;;14.30;99.90;;;;;;5084848;28;20051;-75
2022/10/11 08:50:21;;;;;;;7.95;2.30;;;14.30;99.90;;;;;;5084454;28;20112;-74
2022/10/11 08:52:52;;;;;;;8.27;1.92;;;14.40;99.90;;;;;;5103315;28;20064;-76
2022/10/11 08:55:22;;;;;;;7.85;1.80;;;14.40;99.90;;;;;;5101267;28;20027;-76
2022/10/11 08:57:52;;;;;;;8.20;1.80;;;14.50;99.90;;;;;;5084427;28;20044;-76
2022/10/11 09:00:31;;;;;;;10.30;2.17;;;14.60;99.90;;;;;;5104342;28;20103;-75
2022/10/11 09:03:03;;;;;;;6.85;1.38;;;14.60;99.90;;;;;;5088493;28;20308;-76
2022/10/11 09:05:59;;;;;;;7.05;1.77;;;14.60;99.90;;;;;;5087522;28;20028;-77
2022/10/11 09:08:43;;;;;;;12.73;1.50;;;14.60;99.90;;;;;;5085101;28;20122;-75
2022/10/11 09:11:17;;;;;;;6.70;1.52;;;14.60;99.90;;;;;;5085725;28;20123;-75
2022/10/11 09:14:02;;;;;;;7.95;1.60;;;14.50;99.90;;;;;;5083471;28;20024;-75
2022/10/11 09:17:04;;;;;;;9.40;1.95;;;14.60;99.90;;;;;;5083321;28;20491;-75
2022/10/11 09:19:50;;;;;;;6.35;1.63;;;14.70;99.90;;;;;;5104591;28;20035;-73
2022/10/11 09:22:41;;;;;;;6.05;1.70;;;14.70;99.90;;;;;;5084819;28;20082;-74
2022/10/11 09:25:31;;;;;;;6.53;1.63;;;14.80;99.90;;;;;;5085688;28;20483;-79
2022/10/11 09:28:29;;;;;;;9.95;1.80;;;14.90;99.90;;;;;;5090003;28;20067;-73
2022/10/11 09:30:56;;;;;;;8.65;2.20;;;14.90;99.90;;;;;;5112129;28;20019;-73
2022/10/11 09:33:37;;;;;;;12.57;2.17;;;15.00;99.90;;;;;;5112503;28;20376;-74
2022/10/11 09:36:13;;;;;;;6.88;1.65;;;15.00;99.90;;;;;;5090511;28;20028;-75
2022/10/11 09:38:53;;;;;;;8.18;1.90;;;15.00;99.90;;;;;;5092069;28;20031;-75
2022/10/11 09:41:37;;;;;;;3.60;1.80;;;15.00;99.90;;;;;;5094782;28;20023;-73
2022/10/11 09:44:06;;;;;;;8.60;1.90;;;15.10;99.90;;;;;;5090325;28;20380;-74
2022/10/11 09:46:38;;;;;;;8.80;1.80;;;15.10;99.90;;;;;;5094129;28;20473;-75
2022/10/11 09:49:11;;;;;;;4.50;1.88;;;15.20;99.90;;;;;;5094405;28;20512;-73
2022/10/11 09:51:37;;;;;;;6.55;1.70;;;15.10;99.90;;;;;;5094554;28;20468;-73
2022/10/11 09:54:04;;;;;;;8.23;1.70;;;15.00;99.90;;;;;;5093758;28;20054;-73
2022/10/11 09:56:32;;;;;;;9.90;1.65;;;14.90;99.90;;;;;;5093363;28;20396;-73
2022/10/11 09:59:29;;;;;;;8.50;1.98;;;14.80;99.90;;;;;;5093556;28;20104;-74
2022/10/11 10:02:13;;;;;;;8.20;1.73;;;14.80;99.90;;;;;;5090260;28;20031;-74
2022/10/11 10:04:56;;;;;;;6.63;1.48;;;14.80;99.90;;;;;;5091778;28;20507;-74
2022/10/11 10:07:22;;;;;;;8.23;1.88;;;14.80;99.90;;;;;;5092713;28;20030;-75
2022/10/11 10:09:51;;;;;;;8.20;2.90;;;14.80;99.90;;;;;;5093898;28;20020;-75
2022/10/11 10:12:25;;;;;;;8.27;1.88;;;14.80;99.90;;;;;;5092893;28;20102;-73
2022/10/11 10:15:17;;;;;;;10.20;2.03;;;14.80;99.90;;;;;;5093320;28;20020;-75
2022/10/11 10:17:51;;;;;;;9.43;2.15;;;14.90;99.90;;;;;;5080960;28;20392;-76
2022/10/11 10:20:23;;;;;;;8.88;1.75;;;14.80;99.90;;;;;;5093081;28;20110;-76
2022/10/11 10:22:49;;;;;;;10.57;2.30;;;14.90;99.90;;;;;;5112999;28;20031;-74
2022/10/11 10:25:28;;;;;;;12.98;2.60;;;15.00;99.90;;;;;;5094047;28;20400;-76
2022/10/11 10:27:59;;;;;;;11.35;2.05;;;15.10;99.90;;;;;;5093877;28;20038;-75
2022/10/11 10:30:26;;;;;;;8.55;2.63;;;15.10;99.90;;;;;;5094619;28;20070;-77
2022/10/11 10:33:00;;;;;;;8.32;2.08;;;15.20;99.90;;;;;;5112730;28;20016;-75
2022/10/11 10:35:44;;;;;;;7.97;2.38;;;15.20;99.90;;;;;;5113321;28;20068;-77
2022/10/11 10:38:09;;;;;;;10.57;2.20;;;15.30;99.90;;;;;;5094020;28;20032;-75
2022/10/11 10:40:40;;;;;;;8.30;1.98;;;15.30;99.90;;;;;;5112669;28;20027;-74
2022/10/11 10:43:16;;;;;;;8.82;2.13;;;15.30;99.90;;;;;;5093574;28;20380;-74
2022/10/11 10:46:09;;;;;;;9.98;2.00;;;15.30;99.90;;;;;;5093470;28;20027;-74
2022/10/11 10:49:06;;;;;;;11.00;2.47;;;15.30;99.90;;;;;;5110326;28;20055;-73
2022/10/11 10:51:41;;;;;;;7.70;2.08;;;15.30;99.90;;;;;;5093702;28;20027;-74
2022/10/11 10:54:32;;;;;;;7.53;2.13;;;15.30;99.90;;;;;;5112236;28;20032;-73
2022/10/11 10:57:02;;;;;;;6.30;2.05;;;15.40;99.90;;;;;;5093126;28;20077;-73
2022/10/11 10:59:43;;;;;;;7.65;1.85;;;15.50;99.90;;;;;;5097465;28;20118;-73
2022/10/11 11:02:37;;;;;;;14.63;2.85;;;15.60;99.90;;;;;;5098241;28;20034;-73
2022/10/11 11:05:17;;;;;;;11.55;2.70;;;15.70;99.90;;;;;;5115680;28;20205;-73
2022/10/11 11:07:50;;;;;;;11.65;2.88;;;15.70;99.90;;;;;;5098112;28;20084;-74
2022/10/11 11:10:37;;;;;;;12.18;3.30;;;15.70;99.90;;;;;;5116492;28;20069;-73
2022/10/11 11:13:06;;;;;;;6.90;2.50;;;15.80;99.90;;;;;;5096335;28;20521;-73
2022/10/11 11:15:52;;;;;;;9.50;2.35;;;15.70;99.90;;;;;;5098102;28;20028;-72
2022/10/11 11:18:28;;;;;;;11.18;2.58;;;15.80;99.90;;;;;;5116193;28;20109;-74
2022/10/11 11:21:12;;;;;;;7.80;2.30;;;15.80;99.90;;;;;;5097014;28;20090;-74
2022/10/11 11:23:58;;;;;;;9.30;2.85;;;15.90;99.90;;;;;;5097839;28;20024;-74
2022/10/11 11:26:33;;;;;;;11.75;2.60;;;16.00;99.90;;;;;;5077982;28;20060;-74
2022/10/11 11:29:11;;;;;;;10.02;2.65;;;16.00;99.90;;;;;;5076633;28;20465;-74
2022/10/11 11:31:59;;;;;;;8.68;2.90;;;16.10;99.90;;;;;;5077360;28;20039;-74
2022/10/11 11:34:24;;;;;;;10.32;2.92;;;16.20;99.90;;;;;;5077637;28;20032;-74
2022/10/11 11:36:58;;;;;;;17.30;3.25;;;16.30;99.90;;;;;;5076584;28;20028;-75
2022/10/11 11:39:37;;;;;;;7.30;2.42;;;16.30;99.90;;;;;;5077462;28;20028;-74
2022/10/11 11:42:10;;;;;;;6.18;2.17;;;16.30;99.90;;;;;;5076483;28;20067;-75
2022/10/11 11:44:47;;;;;;;7.38;2.70;;;16.30;99.90;;;;;;5095642;28;20028;-78
2022/10/11 11:47:21;;;;;;;8.40;2.47;;;16.40;99.90;;;;;;5076934;28;20473;-74
2022/10/11 11:50:13;;;;;;;9.75;2.28;;;16.40;99.90;;;;;;5076502;28;20050;-75
2022/10/11 11:52:43;;;;;;;7.28;2.72;;;16.60;99.90;;;;;;5079431;28;20069;-74
2022/10/11 11:55:34;;;;;;;8.50;2.53;;;16.80;99.90;;;;;;5075780;28;20035;-74
2022/10/11 11:58:24;;;;;;;6.63;2.38;;;16.90;99.90;;;;;;5074417;28;20044;-74
2022/10/11 12:01:15;;;;;;;8.70;2.55;;;16.90;99.90;;;;;;5075573;28;20024;-75
2022/10/11 12:03:47;;;;;;;12.27;2.60;;;17.00;99.90;;;;;;5030179;28;20044;-74
2022/10/11 12:06:12;;;;;;;8.15;2.13;;;17.00;99.90;;;;;;5094656;28;20127;-75
2022/10/11 12:08:43;;;;;;;10.50;3.15;;;17.00;99.90;;;;;;5076039;28;20417;-75
2022/10/11 12:11:20;;;;;;;11.18;3.20;;;17.10;99.90;;;;;;5093451;28;20389;-76
2022/10/11 12:13:49;;;;;;;9.07;2.50;;;17.20;99.90;;;;;;5094285;28;20493;-77
2022/10/11 12:16:16;;;;;;;7.70;2.50;;;17.20;99.90;;;;;;5076525;28;20063;-76
2022/10/11 12:18:56;;;;;;;8.40;2.63;;;17.30;99.90;;;;;;5076423;28;20036;-76
2022/10/11 12:21:24;;;;;;;7.60;2.35;;;17.30;99.90;;;;;;5076333;28;20425;-76
2022/10/11 12:23:53;;;;;;;6.32;2.25;;;17.30;99.90;;;;;;5075536;28;20031;-76
2022/10/11 12:26:27;;;;;;;9.90;2.70;;;17.20;99.90;;;;;;5095278;28;20419;-76
2022/10/11 12:29:15;;;;;;;9.20;2.63;;;17.20;99.90;;;;;;5114110;28;20062;-75
2022/10/11 12:31:40;;;;;;;6.35;2.60;;;17.20;99.90;;;;;;5114891;28;20061;-75
2022/10/11 12:34:09;;;;;;;5.88;2.58;;;17.20;99.90;;;;;;5096177;28;20032;-81
2022/10/11 12:36:40;;;;;;;6.05;2.25;;;17.30;99.90;;;;;;5078636;28;20046;-78
2022/10/11 12:39:18;;;;;;;;;;;17.30;99.90;;;;;;5091386;28;20024;-78
2022/10/11 12:42:17;;;;;;;9.15;3.00;;;17.40;99.90;;;;;;5098341;28;19904;-78
2022/10/11 12:45:11;;;;;;;7.70;2.40;;;17.40;99.90;;;;;;5096381;28;20032;-77
2022/10/11 12:48:06;;;;;;;11.32;2.90;;;17.40;99.90;;;;;;5096371;28;20366;-78
2022/10/11 12:50:44;;;;;;;8.70;2.88;;;17.50;99.90;;;;;;5085103;28;20465;-77
2022/10/11 12:53:49;;;;;;;7.35;2.58;;;17.50;99.90;;;;;;5095668;28;20349;-78
2022/10/11 12:56:36;;;;;;;7.68;3.05;;;17.60;99.90;;;;;;5076090;28;20043;-77
2022/10/11 12:59:05;;;;;;;6.32;2.28;;;17.60;99.90;;;;;;5088560;28;20110;-78
2022/10/11 13:01:46;;;;;;;6.22;2.50;;;17.70;99.90;;;;;;5079099;28;20024;-78
2022/10/11 13:04:11;;;;;;;9.25;2.50;;;17.70;99.90;;;;;;5108092;28;20055;-78